Main page
METAR-TAF:

METAR-TAF

Airports :

Base d'aéronautique navale de Landivisiau

Landivisiau, France

latitude: 48-31N, longitude: 004-09W, elevation: 106 m

Current weather observation

The report was made 17 minutes ago, at 09:30 UTC
Wind 9 kt from the North/Northeast
Temperature 15°C
Humidity 72%
Pressure 1011 hPa
Visibility 10 km or more
Scattered clouds at a height of 2300 ft
Broken clouds at a height of 10000 ft
Broken clouds at a height of 13000 ft

METAR: LFRJ 190930Z AUTO 03009KT 9999 SCT023 BKN100 BKN130 15/10 Q1011

Time: 11:47 (09:47 UTC)

Forecast

The report was made 18 hours and 15 minutes ago, at 15:32 UTC
Forecast valid from 18 at 15 UTC to 18 at 24 UTC
Wind 8 kt from the North/Northwest
Visibility 10 km or more
Scattered clouds at a height of 1800 ft
Broken clouds at a height of 4000 ft
Becoming
from 18 at 18 UTC to 18 at 20 UTC
Broken clouds at a height of 1000 ft

TAF: LFRJ 181532Z 1815/1824 33008KT 9999 SCT018 BKN040 BECMG 1818/1820 BKN010

Weather observations and forecasts of more than 4000 airports (METAR and TAF reports).

The available stations are represented by yellow and red dots on the map.

Hover mouse over dot to see the name of the station.

Then click to see weather observations and forecasts.

To change the map : click on the green buttons with a black cross to zoom in, on the green button with a dash to zoom out, or on the green arrows for adjacent maps.


METAR-TAF: